createdAt,value
2023-05-08T00:00:10.503Z,19.67
2023-05-08T00:02:37.415Z,18.92
2023-05-08T00:05:04.408Z,17.70
2023-05-08T00:07:31.274Z,15.10
2023-05-08T00:09:57.995Z,15.90
2023-05-08T00:12:24.644Z,21.42
2023-05-08T00:14:51.368Z,19.25
2023-05-08T00:17:18.121Z,20.25
2023-05-08T00:19:44.811Z,19.40
2023-05-08T00:22:11.537Z,19.02
2023-05-08T00:24:38.315Z,15.65
2023-05-08T00:27:05.067Z,17.38
2023-05-08T00:29:31.742Z,12.90
2023-05-08T00:31:58.486Z,17.25
2023-05-08T00:34:25.376Z,16.85
2023-05-08T00:36:52.400Z,17.98
2023-05-08T00:39:19.182Z,14.80
2023-05-08T00:41:45.926Z,19.70
2023-05-08T00:44:13.024Z,25.23
2023-05-08T00:46:42.081Z,12.85
2023-05-08T00:49:13.327Z,16.67
2023-05-08T00:51:45.271Z,17.45
2023-05-08T00:54:12.105Z,15.93
2023-05-08T00:56:39.342Z,12.32
2023-05-08T00:59:10.447Z,18.05
2023-05-08T01:01:37.549Z,22.38
2023-05-08T01:04:05.297Z,16.00
2023-05-08T01:06:32.212Z,15.75
2023-05-08T01:08:58.974Z,15.82
2023-05-08T01:11:29.109Z,19.10
2023-05-08T01:14:17.642Z,21.90
2023-05-08T01:16:49.861Z,15.15
2023-05-08T01:19:35.483Z,26.63
2023-05-08T01:22:25.153Z,14.45
2023-05-08T01:25:36.239Z,18.02
2023-05-08T01:28:17.390Z,19.27
2023-05-08T01:31:06.691Z,13.75
2023-05-08T01:34:01.317Z,18.55
2023-05-08T01:36:40.320Z,18.80
2023-05-08T01:39:20.241Z,35.38
2023-05-08T01:41:54.482Z,13.60
2023-05-08T01:44:21.766Z,16.00
2023-05-08T01:46:50.231Z,12.95
2023-05-08T01:49:34.705Z,20.85
2023-05-08T01:52:07.186Z,16.42
2023-05-08T01:54:41.247Z,21.98
2023-05-08T01:57:09.447Z,23.80
2023-05-08T01:59:37.032Z,16.00
2023-05-08T02:02:04.186Z,17.63
2023-05-08T02:04:32.215Z,20.75
2023-05-08T02:06:59.799Z,21.88
2023-05-08T02:09:27.180Z,22.05
2023-05-08T02:11:55.356Z,16.98
2023-05-08T02:14:22.353Z,16.15
2023-05-08T02:16:51.198Z,25.20
2023-05-08T02:19:18.344Z,15.20
2023-05-08T02:21:45.803Z,25.25
2023-05-08T02:24:13.636Z,19.30
2023-05-08T02:26:41.528Z,21.88
2023-05-08T02:29:08.794Z,25.20
2023-05-08T02:31:36.338Z,20.73
2023-05-08T02:34:04.312Z,20.92
2023-05-08T02:36:32.150Z,24.08
2023-05-08T02:38:59.199Z,28.58
2023-05-08T02:41:29.442Z,21.55
2023-05-08T02:43:56.505Z,23.25
2023-05-08T02:46:35.341Z,19.17
2023-05-08T02:49:09.879Z,21.08
2023-05-08T02:51:51.177Z,24.02
2023-05-08T02:54:25.277Z,26.02
2023-05-08T02:57:00.212Z,27.40
2023-05-08T02:59:57.789Z,24.80
2023-05-08T03:02:35.795Z,23.08
2023-05-08T03:05:15.531Z,25.52
2023-05-08T03:07:42.858Z,28.25
2023-05-08T03:10:13.337Z,23.15
2023-05-08T03:12:43.129Z,28.48
2023-05-08T03:15:19.532Z,24.65
2023-05-08T03:17:47.659Z,24.73
2023-05-08T03:20:17.391Z,22.13
2023-05-08T03:22:45.664Z,26.33
2023-05-08T03:25:14.415Z,29.83
2023-05-08T03:27:42.165Z,25.38
2023-05-08T03:30:10.025Z,27.70
2023-05-08T03:32:39.347Z,30.33
2023-05-08T03:35:06.797Z,22.80
2023-05-08T03:37:33.650Z,23.23
2023-05-08T03:40:00.913Z,22.02
2023-05-08T03:42:27.819Z,29.23
2023-05-08T03:44:54.674Z,23.75
2023-05-08T03:47:22.785Z,29.38
2023-05-08T03:49:50.358Z,31.58
2023-05-08T03:52:17.959Z,34.10
2023-05-08T03:54:45.555Z,25.92
2023-05-08T03:57:12.697Z,28.30
2023-05-08T03:59:50.060Z,27.85
2023-05-08T04:02:17.314Z,31.90
2023-05-08T04:04:45.884Z,35.67
2023-05-08T04:07:29.378Z,26.77
2023-05-08T04:10:01.573Z,28.42
2023-05-08T04:12:51.929Z,32.53
2023-05-08T04:15:28.417Z,30.83
2023-05-08T04:17:59.994Z,30.67
2023-05-08T04:20:27.724Z,32.88
2023-05-08T04:22:55.877Z,30.20
2023-05-08T04:25:24.232Z,27.35
2023-05-08T04:27:51.413Z,28.70
2023-05-08T04:30:20.078Z,35.00
2023-05-08T04:32:47.962Z,37.15
2023-05-08T04:35:16.736Z,35.67
2023-05-08T04:37:45.680Z,33.90
2023-05-08T04:40:13.313Z,38.67
2023-05-08T04:42:43.441Z,31.60
2023-05-08T04:45:10.899Z,30.98
2023-05-08T04:47:37.930Z,37.22
2023-05-08T04:50:05.618Z,34.85
2023-05-08T04:52:34.184Z,38.60
2023-05-08T04:55:01.514Z,37.78
2023-05-08T04:57:29.498Z,31.13
2023-05-08T04:59:56.569Z,38.40
2023-05-08T05:02:26.110Z,44.55
2023-05-08T05:04:52.876Z,34.85
2023-05-08T05:07:19.720Z,37.80
2023-05-08T05:09:47.005Z,42.38
2023-05-08T05:12:13.813Z,40.00
2023-05-08T05:14:40.694Z,36.50
2023-05-08T05:17:07.432Z,40.22
2023-05-08T05:19:34.356Z,38.83
2023-05-08T05:22:01.111Z,38.28
2023-05-08T05:24:28.012Z,40.13
2023-05-08T05:26:54.730Z,41.85
2023-05-08T05:29:21.742Z,44.30
2023-05-08T05:31:49.662Z,37.63
2023-05-08T05:34:16.482Z,47.13
2023-05-08T05:36:43.273Z,39.35
2023-05-08T05:39:10.089Z,38.53
2023-05-08T05:41:37.025Z,39.22
2023-05-08T05:44:04.083Z,45.33
2023-05-08T05:46:32.701Z,41.30
2023-05-08T05:49:02.275Z,49.78
2023-05-08T05:51:29.291Z,40.13
2023-05-08T05:53:57.179Z,44.75
2023-05-08T05:56:25.249Z,43.88
2023-05-08T05:58:52.510Z,45.38
2023-05-08T06:01:19.516Z,43.33
2023-05-08T06:03:46.389Z,46.17
2023-05-08T06:06:13.167Z,46.22
2023-05-08T06:08:39.890Z,44.28
2023-05-08T06:11:06.583Z,42.28
2023-05-08T06:13:33.593Z,46.50
2023-05-08T06:16:00.956Z,50.80
2023-05-08T06:18:27.707Z,45.80
2023-05-08T06:21:00.746Z,46.53
2023-05-08T06:25:54.404Z,52.25
2023-05-08T06:28:22.475Z,46.38
2023-05-08T06:30:49.235Z,50.08
2023-05-08T06:33:15.975Z,46.67
2023-05-08T06:35:46.379Z,51.60
2023-05-08T06:38:13.765Z,44.03
2023-05-08T06:40:44.507Z,50.45
2023-05-08T06:43:12.055Z,48.90
2023-05-08T06:45:39.218Z,43.80
2023-05-08T06:48:06.352Z,50.85
2023-05-08T06:50:33.164Z,49.65
2023-05-08T06:52:59.891Z,52.78
2023-05-08T06:55:26.564Z,48.63
2023-05-08T06:57:53.330Z,44.33
2023-05-08T07:00:20.264Z,46.90
2023-05-08T07:02:47.027Z,46.78
2023-05-08T07:05:14.166Z,44.63
2023-05-08T07:07:42.611Z,47.88
2023-05-08T07:10:10.039Z,49.00
2023-05-08T07:12:36.811Z,53.80
2023-05-08T07:15:13.776Z,41.63
2023-05-08T07:17:51.087Z,51.67
2023-05-08T07:20:17.846Z,47.60
2023-05-08T07:22:44.592Z,53.80
2023-05-08T07:25:11.510Z,53.70
2023-05-08T07:27:38.409Z,50.58
2023-05-08T07:30:05.633Z,52.22
2023-05-08T07:32:33.401Z,45.22
2023-05-08T07:35:00.327Z,53.22
2023-05-08T07:37:27.089Z,50.10
2023-05-08T07:39:53.779Z,43.97
2023-05-08T07:42:21.239Z,45.47
2023-05-08T07:44:54.468Z,49.13
2023-05-08T07:47:21.958Z,47.58
2023-05-08T07:49:48.792Z,45.45
2023-05-08T07:52:15.696Z,55.42
2023-05-08T07:54:42.622Z,43.47
2023-05-08T07:57:09.392Z,44.08
2023-05-08T07:59:36.146Z,49.05
2023-05-08T08:02:03.151Z,44.20
2023-05-08T08:04:30.034Z,51.55
2023-05-08T08:06:59.000Z,44.85
2023-05-08T08:09:25.825Z,52.85
2023-05-08T08:11:52.542Z,46.60
2023-05-08T08:14:19.289Z,42.05
2023-05-08T08:16:46.040Z,51.58
2023-05-08T08:19:12.757Z,43.30
2023-05-08T08:21:43.694Z,47.03
2023-05-08T08:24:10.528Z,51.17
2023-05-08T08:26:37.298Z,43.15
2023-05-08T08:29:04.493Z,51.08
2023-05-08T08:31:31.381Z,77.45
2023-05-08T08:33:58.166Z,49.20
2023-05-08T08:36:25.138Z,47.50
2023-05-08T08:38:52.143Z,46.10
2023-05-08T08:41:18.888Z,44.92
2023-05-08T08:43:45.997Z,50.95
2023-05-08T08:46:15.261Z,50.08
2023-05-08T08:48:46.487Z,48.53
2023-05-08T08:51:22.159Z,55.22
2023-05-08T08:53:50.690Z,53.17
2023-05-08T08:56:17.829Z,48.17
2023-05-08T08:58:55.307Z,47.50
2023-05-08T09:01:22.086Z,47.92
2023-05-08T09:03:49.953Z,54.80
2023-05-08T09:06:17.473Z,51.67
2023-05-08T09:08:44.555Z,52.38
2023-05-08T09:11:11.239Z,48.75
2023-05-08T09:13:37.954Z,58.33
2023-05-08T09:16:05.036Z,50.33
2023-05-08T09:18:31.814Z,53.45
2023-05-08T09:21:00.420Z,57.28
2023-05-08T09:23:27.339Z,53.38
2023-05-08T09:25:54.157Z,60.67
2023-05-08T09:28:22.786Z,49.58
2023-05-08T09:30:53.031Z,56.35
2023-05-08T09:33:29.834Z,63.47
2023-05-08T09:35:57.151Z,61.97
2023-05-08T09:38:30.091Z,56.17
2023-05-08T09:43:40.049Z,60.90
2023-05-08T09:46:19.013Z,57.78
2023-05-08T09:48:45.933Z,50.60
2023-05-08T09:51:12.798Z,57.65
2023-05-08T09:53:39.525Z,57.80
2023-05-08T09:56:06.599Z,55.78
2023-05-08T09:58:44.099Z,69.40
2023-05-08T10:01:36.563Z,61.95
2023-05-08T10:04:05.392Z,58.43
2023-05-08T10:06:32.366Z,69.05
2023-05-08T10:09:15.188Z,63.50
2023-05-08T10:11:51.874Z,60.05
2023-05-08T10:14:19.430Z,61.17
2023-05-08T10:16:49.227Z,60.45
2023-05-08T10:19:17.619Z,63.58
2023-05-08T10:21:49.295Z,61.15
2023-05-08T10:24:36.227Z,58.75
2023-05-08T10:27:17.929Z,63.55
2023-05-08T10:29:52.790Z,65.13
2023-05-08T10:32:20.548Z,67.93
2023-05-08T10:34:52.049Z,59.58
2023-05-08T10:37:18.779Z,60.78
2023-05-08T10:39:46.596Z,68.60
2023-05-08T10:42:14.245Z,58.33
2023-05-08T10:44:41.264Z,57.72
2023-05-08T10:47:34.159Z,63.70
2023-05-08T10:50:12.816Z,68.95
2023-05-08T10:52:54.744Z,60.80
2023-05-08T10:55:32.190Z,57.00
2023-05-08T10:58:12.607Z,60.00
2023-05-08T11:00:59.392Z,68.38
2023-05-08T11:03:32.085Z,60.67
2023-05-08T11:06:00.708Z,64.30
2023-05-08T11:08:28.646Z,64.95
2023-05-08T11:11:02.005Z,69.80
2023-05-08T11:13:50.700Z,64.47
2023-05-08T11:16:17.584Z,62.67
2023-05-08T11:19:26.282Z,57.88
2023-05-08T11:22:15.562Z,56.55
2023-05-08T11:24:53.580Z,68.38
2023-05-08T11:27:35.594Z,62.72
2023-05-08T11:30:36.696Z,63.67
2023-05-08T11:33:06.886Z,64.00
2023-05-08T11:35:50.561Z,57.45
2023-05-08T11:38:38.230Z,53.75
2023-05-08T11:41:21.531Z,61.90
2023-05-08T11:43:59.582Z,66.22
2023-05-08T11:46:36.220Z,59.63
2023-05-08T11:49:02.894Z,57.92
2023-05-08T11:51:33.026Z,63.10
2023-05-08T11:54:00.371Z,61.13
2023-05-08T11:56:27.089Z,53.42
2023-05-08T11:59:08.665Z,54.03
2023-05-08T12:01:35.755Z,56.95
2023-05-08T12:04:07.464Z,59.45
2023-05-08T12:06:35.345Z,54.25
2023-05-08T12:09:04.871Z,60.80
2023-05-08T12:11:32.123Z,58.03
2023-05-08T12:13:58.787Z,52.33
2023-05-08T12:16:26.196Z,56.72
2023-05-08T12:18:53.555Z,53.88
2023-05-08T12:21:21.257Z,50.88
2023-05-08T12:23:48.251Z,52.00
2023-05-08T12:26:15.171Z,45.50
2023-05-08T12:28:44.566Z,57.42
2023-05-08T12:31:11.980Z,62.22
2023-05-08T12:33:38.798Z,53.50
2023-05-08T12:36:06.699Z,50.17
2023-05-08T12:38:33.378Z,56.47
2023-05-08T12:41:04.443Z,57.42
2023-05-08T12:43:32.127Z,48.72
2023-05-08T12:45:58.822Z,57.40
2023-05-08T12:48:25.574Z,56.42
2023-05-08T12:50:52.302Z,58.05
2023-05-08T12:53:20.634Z,54.58
2023-05-08T12:55:55.313Z,57.65
2023-05-08T12:58:30.446Z,45.15
2023-05-08T13:01:10.116Z,54.33
2023-05-08T13:03:37.481Z,44.40
2023-05-08T13:06:04.577Z,48.40
2023-05-08T13:08:38.023Z,51.67
2023-05-08T13:11:06.303Z,51.92
2023-05-08T13:13:34.690Z,46.00
2023-05-08T13:16:05.977Z,43.97
2023-05-08T13:18:33.432Z,49.78
2023-05-08T13:21:01.947Z,56.00
2023-05-08T13:23:28.693Z,53.45
2023-05-08T13:25:55.717Z,54.97
2023-05-08T13:28:22.441Z,47.70
2023-05-08T13:30:49.508Z,50.67
2023-05-08T13:33:16.194Z,53.35
2023-05-08T13:35:42.912Z,58.85
2023-05-08T13:38:09.606Z,59.25
2023-05-08T13:40:36.314Z,48.67
2023-05-08T13:43:03.007Z,53.83
2023-05-08T13:45:29.872Z,55.92
2023-05-08T13:47:56.810Z,51.83
2023-05-08T13:50:23.589Z,43.40
2023-05-08T13:52:51.677Z,53.38
2023-05-08T13:55:22.594Z,51.95
2023-05-08T13:57:49.457Z,52.53
2023-05-08T14:00:16.344Z,49.03
2023-05-08T14:02:43.092Z,51.15
2023-05-08T14:05:09.976Z,50.00
2023-05-08T14:07:36.775Z,47.58
2023-05-08T14:10:04.047Z,50.17
2023-05-08T14:12:30.922Z,51.88
2023-05-08T14:14:58.192Z,55.47
2023-05-08T14:17:24.890Z,51.35
2023-05-08T14:19:51.605Z,51.28
2023-05-08T14:22:18.300Z,47.20
2023-05-08T14:24:45.064Z,49.90
2023-05-08T14:27:12.003Z,48.22
2023-05-08T14:29:39.581Z,51.15
2023-05-08T14:32:06.371Z,51.42
2023-05-08T14:34:33.074Z,47.35
2023-05-08T14:36:59.753Z,48.17
2023-05-08T14:39:26.447Z,54.72
2023-05-08T14:44:22.792Z,51.38
2023-05-08T14:46:49.706Z,49.90
2023-05-08T14:49:25.312Z,49.30
2023-05-08T14:52:00.010Z,48.00
2023-05-08T14:54:26.880Z,43.53
2023-05-08T14:56:53.923Z,43.42
2023-05-08T14:59:20.959Z,42.60
2023-05-08T15:01:47.728Z,44.20
2023-05-08T15:04:14.623Z,47.25
2023-05-08T15:06:41.451Z,44.17
2023-05-08T15:09:09.319Z,45.45
2023-05-08T15:11:36.912Z,45.08
2023-05-08T15:14:04.575Z,45.58
2023-05-08T15:16:31.370Z,46.88
2023-05-08T15:18:58.164Z,41.35
2023-05-08T15:21:26.802Z,47.90
2023-05-08T15:23:55.000Z,49.30
2023-05-08T15:26:22.286Z,46.60
2023-05-08T15:28:49.084Z,44.53
2023-05-08T15:31:16.105Z,47.63
2023-05-08T15:33:44.953Z,42.78
2023-05-08T15:36:12.720Z,48.15
2023-05-08T15:38:40.964Z,43.58
2023-05-08T15:41:07.785Z,39.35
2023-05-08T15:43:34.559Z,45.97
2023-05-08T15:46:01.377Z,41.78
2023-05-08T15:48:28.070Z,45.22
2023-05-08T15:50:54.898Z,46.47
2023-05-08T15:53:21.690Z,41.90
2023-05-08T15:55:48.472Z,42.92
2023-05-08T15:58:15.186Z,45.38
2023-05-08T16:00:45.248Z,50.17
2023-05-08T16:03:12.541Z,45.75
2023-05-08T16:05:39.583Z,46.83
2023-05-08T16:08:07.585Z,45.25
2023-05-08T16:10:34.432Z,46.10
2023-05-08T16:13:01.135Z,46.15
2023-05-08T16:15:27.958Z,39.15
2023-05-08T16:17:54.838Z,48.08
2023-05-08T16:20:21.918Z,47.42
2023-05-08T16:22:52.701Z,42.17
2023-05-08T16:25:19.520Z,44.67
2023-05-08T16:27:46.204Z,41.05
2023-05-08T16:30:13.614Z,40.90
2023-05-08T16:32:40.652Z,41.97
2023-05-08T16:35:07.957Z,39.05
2023-05-08T16:37:36.802Z,46.50
2023-05-08T16:40:08.369Z,47.55
2023-05-08T16:42:36.155Z,51.75
2023-05-08T16:45:06.028Z,46.00
2023-05-08T16:47:33.309Z,41.20
2023-05-08T16:50:00.385Z,49.50
2023-05-08T16:52:27.250Z,42.67
2023-05-08T16:54:53.970Z,45.47
2023-05-08T16:57:20.719Z,41.88
2023-05-08T16:59:47.536Z,43.45
2023-05-08T17:02:18.687Z,47.17
2023-05-08T17:04:47.187Z,44.40
2023-05-08T17:07:14.932Z,43.90
2023-05-08T17:09:41.807Z,38.20
2023-05-08T17:12:08.573Z,40.65
2023-05-08T17:14:35.377Z,39.08
2023-05-08T17:17:02.102Z,36.67
2023-05-08T17:19:28.907Z,38.47
2023-05-08T17:21:57.541Z,36.67
2023-05-08T17:24:26.306Z,36.00
2023-05-08T17:26:53.044Z,37.03
2023-05-08T17:29:19.770Z,41.25
2023-05-08T17:31:46.540Z,36.65
2023-05-08T17:34:13.352Z,38.70
2023-05-08T17:36:40.203Z,39.70
2023-05-08T17:39:06.939Z,38.05
2023-05-08T17:41:33.644Z,38.15
2023-05-08T17:44:00.387Z,37.38
2023-05-08T17:46:27.147Z,43.70
2023-05-08T17:48:54.152Z,44.33
2023-05-08T17:51:21.070Z,42.55
2023-05-08T17:53:47.884Z,41.58
2023-05-08T17:56:16.230Z,42.65
2023-05-08T17:58:43.486Z,42.95
2023-05-08T18:01:10.239Z,43.88
2023-05-08T18:03:37.183Z,40.85
2023-05-08T18:06:03.954Z,45.35
2023-05-08T18:08:31.285Z,45.40
2023-05-08T18:10:57.955Z,41.65
2023-05-08T18:13:24.887Z,48.38
2023-05-08T18:15:51.757Z,44.30
2023-05-08T18:18:18.496Z,44.97
2023-05-08T18:20:51.279Z,45.75
2023-05-08T18:23:17.949Z,42.80
2023-05-08T18:25:44.678Z,46.40
2023-05-08T18:28:11.390Z,50.30
2023-05-08T18:30:40.080Z,46.47
2023-05-08T18:33:06.918Z,49.97
2023-05-08T18:35:33.671Z,47.70
2023-05-08T18:38:00.414Z,49.08
2023-05-08T18:40:27.052Z,49.72
2023-05-08T18:42:53.732Z,48.38
2023-05-08T18:45:25.743Z,46.38
2023-05-08T18:47:54.138Z,48.97
2023-05-08T18:50:20.917Z,44.38
2023-05-08T18:52:47.693Z,49.35
2023-05-08T18:55:14.408Z,48.13
2023-05-08T18:57:41.231Z,44.75
2023-05-08T19:00:08.579Z,46.83
2023-05-08T19:02:35.740Z,63.10
2023-05-08T19:05:02.591Z,48.33
2023-05-08T19:07:29.458Z,51.72
2023-05-08T19:09:56.222Z,49.83
2023-05-08T19:12:23.130Z,46.08
2023-05-08T19:14:50.979Z,51.10
2023-05-08T19:17:17.845Z,45.05
2023-05-08T19:19:44.655Z,53.95
2023-05-08T19:22:11.488Z,53.72
2023-05-08T19:24:38.254Z,55.55
2023-05-08T19:27:04.946Z,54.15
2023-05-08T19:29:33.646Z,51.17
2023-05-08T19:32:02.119Z,50.72
2023-05-08T19:34:28.902Z,50.25
2023-05-08T19:36:55.763Z,48.92
2023-05-08T19:39:22.520Z,49.15
2023-05-08T19:41:49.208Z,50.78
2023-05-08T19:44:16.128Z,51.28
2023-05-08T19:46:43.496Z,47.28
2023-05-08T19:49:10.240Z,48.67
2023-05-08T19:51:37.014Z,55.67
2023-05-08T19:54:03.766Z,48.83
2023-05-08T19:56:30.627Z,48.88
2023-05-08T19:58:57.541Z,47.70
2023-05-08T20:01:24.536Z,53.75
2023-05-08T20:03:51.371Z,50.55
2023-05-08T20:06:18.228Z,44.85
2023-05-08T20:08:44.935Z,48.78
2023-05-08T20:11:11.798Z,45.22
2023-05-08T20:13:39.468Z,47.92
2023-05-08T20:16:06.464Z,53.95
2023-05-08T20:18:34.540Z,42.40
2023-05-08T20:21:01.388Z,45.70
2023-05-08T20:23:28.318Z,52.25
2023-05-08T20:25:55.240Z,50.10
2023-05-08T20:28:25.266Z,47.80
2023-05-08T20:30:52.491Z,41.90
2023-05-08T20:33:19.498Z,48.05
2023-05-08T20:35:46.222Z,46.83
2023-05-08T20:38:14.585Z,43.20
2023-05-08T20:40:41.465Z,42.10
2023-05-08T20:43:08.294Z,53.33
2023-05-08T20:45:35.263Z,43.53
2023-05-08T20:48:02.034Z,44.90
2023-05-08T20:50:29.014Z,41.50
2023-05-08T20:52:55.827Z,46.67
2023-05-08T20:55:22.799Z,45.78
2023-05-08T20:57:49.672Z,44.63
2023-05-08T21:00:16.617Z,40.60
2023-05-08T21:02:43.852Z,45.97
2023-05-08T21:05:11.625Z,41.88
2023-05-08T21:07:39.289Z,46.42
2023-05-08T21:10:06.504Z,44.42
2023-05-08T21:12:33.486Z,52.90
2023-05-08T21:15:00.204Z,39.17
2023-05-08T21:17:27.229Z,41.78
2023-05-08T21:19:54.127Z,51.10
2023-05-08T21:22:21.271Z,48.40
2023-05-08T21:24:48.242Z,47.95
2023-05-08T21:27:14.947Z,45.05
2023-05-08T21:29:41.625Z,44.00
2023-05-08T21:32:10.118Z,46.28
2023-05-08T21:34:37.370Z,39.42
2023-05-08T21:37:04.258Z,45.88
2023-05-08T21:39:30.953Z,44.80
2023-05-08T21:41:57.652Z,47.72
2023-05-08T21:44:24.361Z,45.40
2023-05-08T21:46:51.183Z,50.80
2023-05-08T21:49:18.244Z,45.17
2023-05-08T21:51:45.738Z,46.25
2023-05-08T21:54:12.533Z,52.70
2023-05-08T21:56:39.683Z,44.55
2023-05-08T21:59:07.286Z,52.55
2023-05-08T22:01:34.050Z,47.45
2023-05-08T22:04:00.896Z,52.90
2023-05-08T22:06:27.774Z,54.97
2023-05-08T22:08:54.736Z,50.75
2023-05-08T22:11:22.519Z,42.78
2023-05-08T22:13:49.167Z,41.78
2023-05-08T22:16:15.987Z,50.42
2023-05-08T22:18:42.904Z,47.83
2023-05-08T22:21:09.678Z,42.55
2023-05-08T22:23:36.392Z,50.22
2023-05-08T22:26:03.343Z,53.20
2023-05-08T22:28:30.183Z,54.17
2023-05-08T22:30:56.865Z,53.75
2023-05-08T22:33:23.581Z,53.17
2023-05-08T22:35:50.282Z,54.17
2023-05-08T22:38:16.952Z,52.78
2023-05-08T22:40:43.877Z,56.17
2023-05-08T22:43:10.692Z,50.42
2023-05-08T22:45:37.465Z,53.17
2023-05-08T22:48:04.450Z,49.83
2023-05-08T22:50:31.247Z,45.63
2023-05-08T22:52:58.002Z,52.13
2023-05-08T22:55:24.745Z,47.72
2023-05-08T22:57:51.384Z,58.90
2023-05-08T23:00:18.379Z,48.22
2023-05-08T23:02:45.220Z,55.22
2023-05-08T23:05:12.109Z,52.20
2023-05-08T23:07:39.259Z,47.08
2023-05-08T23:10:06.616Z,49.95
2023-05-08T23:12:33.502Z,45.70
2023-05-08T23:15:00.200Z,50.58
2023-05-08T23:17:27.021Z,49.15
2023-05-08T23:19:53.787Z,44.78
2023-05-08T23:22:20.526Z,53.60
2023-05-08T23:24:48.318Z,40.88
2023-05-08T23:27:15.133Z,54.92
2023-05-08T23:29:41.867Z,46.00
2023-05-08T23:32:08.650Z,51.92
2023-05-08T23:34:35.563Z,44.80
2023-05-08T23:37:02.310Z,55.53
2023-05-08T23:39:29.139Z,53.67
2023-05-08T23:41:55.865Z,52.30
2023-05-08T23:44:22.537Z,61.55
2023-05-08T23:46:49.236Z,63.42
2023-05-08T23:49:16.072Z,60.15
2023-05-08T23:51:42.855Z,52.33
2023-05-08T23:54:09.714Z,56.78
2023-05-08T23:56:36.426Z,57.50
2023-05-08T23:59:03.396Z,53.35
